Time;durP1;ratioP1;P1;durP2;ratioP2;P2;SDS_P1;SDS_P2;PMS_P1;PMS_P2;Temp;Humidity;BMP_temperature;BMP_pressure;BME280_temperature;BME280_humidity;BME280_pressure;Samples;Min_cycle;Max_cycle;Signal;HPM_P1;HPM_P2
2021/06/20 00:00:15;;;;;;;;;5.00;5.00;;;;;20.83;99.29;100684.91;4975740;28;45428;-77
2021/06/20 00:02:42;;;;;;;;;6.00;5.75;;;;;20.80;99.33;100679.81;4974731;28;45526;-77
2021/06/20 00:05:11;;;;;;;;;6.00;6.00;;;;;20.80;100.00;100689.66;4977902;28;45477;-76
2021/06/20 00:07:38;;;;;;;;;5.25;5.25;;;;;20.81;99.56;100680.66;4975744;28;45647;-76
2021/06/20 00:10:05;;;;;;;;;8.00;6.50;;;;;20.82;100.00;100671.66;4975706;28;45368;-75
2021/06/20 00:12:31;;;;;;;;;4.75;4.75;;;;;20.82;99.47;100669.00;4976404;28;45370;-78
2021/06/20 00:14:57;;;;;;;;;6.25;5.50;;;;;20.79;99.98;100672.78;4976451;28;46303;-77
2021/06/20 00:17:22;;;;;;;;;6.75;4.00;;;;;20.78;99.55;100668.44;4975686;28;45717;-77
2021/06/20 00:19:48;;;;;;;;;6.00;6.00;;;;;20.78;99.83;100668.44;4975145;28;45762;-77
2021/06/20 00:22:13;;;;;;;;;7.25;5.25;;;;;20.78;99.22;100662.25;4974991;28;45546;-77
2021/06/20 00:24:39;;;;;;;;;6.75;4.75;;;;;20.76;99.34;100666.84;4975160;28;46711;-77
2021/06/20 00:27:05;;;;;;;;;7.00;6.00;;;;;20.74;98.69;100663.50;4975801;28;45834;-77
2021/06/20 00:29:30;;;;;;;;;7.00;7.00;;;;;20.70;98.99;100662.91;4974800;28;45452;-77
2021/06/20 00:31:56;;;;;;;;;7.75;6.75;;;;;20.69;99.28;100661.22;4990509;28;45342;-75
2021/06/20 00:34:22;;;;;;;;;6.75;6.75;;;;;20.67;98.88;100659.63;4975533;28;46627;-75
2021/06/20 00:36:47;;;;;;;;;6.75;5.75;;;;;20.65;99.19;100654.44;4975354;28;45478;-74
2021/06/20 00:39:13;;;;;;;;;5.75;5.25;;;;;20.66;99.22;100655.28;4975537;28;45354;-75
2021/06/20 00:41:39;;;;;;;;;6.00;5.00;;;;;20.67;99.40;100652.47;4975823;28;45379;-74
2021/06/20 00:44:04;;;;;;;;;5.25;5.25;;;;;20.65;98.96;100653.59;4977093;28;45363;-74
2021/06/20 00:46:29;;;;;;;;;5.75;5.00;;;;;20.65;99.43;100645.59;4973645;28;45849;-74
2021/06/20 00:48:55;;;;;;;;;7.25;7.00;;;;;20.63;99.06;100650.22;4974454;28;45514;-74
2021/06/20 00:51:21;;;;;;;;;5.75;5.75;;;;;20.60;98.88;100656.66;4973074;28;45509;-74
2021/06/20 00:53:46;;;;;;;;;5.00;5.00;;;;;20.56;99.35;100663.22;4990447;28;46298;-74
2021/06/20 00:56:12;;;;;;;;;7.25;5.00;;;;;20.52;98.99;100659.16;4976683;28;45964;-74
2021/06/20 00:58:39;;;;;;;;;5.00;5.00;;;;;20.51;98.98;100662.78;4975155;28;45551;-74
2021/06/20 01:01:04;;;;;;;;;12.25;7.75;;;;;20.48;99.25;100658.56;4972597;28;45759;-74
2021/06/20 01:03:30;;;;;;;;;6.75;5.50;;;;;20.45;98.69;100650.78;4974700;28;45418;-74
2021/06/20 01:05:56;;;;;;;;;4.75;4.75;;;;;20.43;98.44;100649.22;4975282;28;45534;-74
2021/06/20 01:08:21;;;;;;;;;5.00;5.00;;;;;20.41;99.06;100652.03;4976076;28;45498;-74
2021/06/20 01:10:47;;;;;;;;;6.00;5.00;;;;;20.40;98.49;100663.66;4975013;28;45497;-74
2021/06/20 01:13:16;;;;;;;;;7.75;5.00;;;;;20.37;98.82;100665.78;4975437;28;45416;-74
2021/06/20 01:15:44;;;;;;;;;5.50;5.50;;;;;20.36;99.34;100662.25;4973807;28;45978;-74
2021/06/20 01:18:10;;;;;;;;;7.50;5.50;;;;;20.33;99.20;100665.19;4973896;28;45500;-74
2021/06/20 01:20:36;;;;;;;;;5.75;4.25;;;;;20.34;98.94;100672.19;4974500;28;45524;-74
2021/06/20 01:23:02;;;;;;;;;5.25;5.25;;;;;20.29;98.92;100664.59;4974102;28;45615;-74
2021/06/20 01:25:28;;;;;;;;;7.25;6.25;;;;;20.28;98.74;100670.06;4974587;28;45418;-73
2021/06/20 01:27:58;;;;;;;;;6.00;6.00;;;;;20.29;98.97;100675.25;4974278;28;45598;-74
2021/06/20 01:30:30;;;;;;;;;8.50;5.50;;;;;20.29;98.87;100675.25;4974952;28;45412;-74
2021/06/20 01:32:57;;;;;;;;;8.75;7.00;;;;;20.25;98.84;100676.50;5006056;28;46542;-73
2021/06/20 01:35:23;;;;;;;;;6.00;5.00;;;;;20.24;98.35;100677.47;4974547;28;45304;-74
2021/06/20 01:37:49;;;;;;;;;7.75;5.75;;;;;20.21;98.98;100664.41;4974960;28;45531;-74
2021/06/20 01:40:16;;;;;;;;;6.00;5.00;;;;;20.23;98.87;100669.59;4974886;28;45462;-74
2021/06/20 01:42:42;;;;;;;;;8.25;6.75;;;;;20.20;98.55;100662.72;4973035;28;45643;-73
2021/06/20 01:45:09;;;;;;;;;5.50;5.50;;;;;20.19;98.76;100655.66;4974980;28;45399;-74
2021/06/20 01:47:35;;;;;;;;;12.25;7.25;;;;;20.21;98.56;100659.06;4973981;28;45380;-74
2021/06/20 01:50:04;;;;;;;;;4.75;4.75;;;;;20.17;98.46;100649.63;4977174;28;45373;-72
2021/06/20 01:52:29;;;;;;;;;8.00;6.75;;;;;20.15;98.01;100643.59;4984013;28;46185;-74
2021/06/20 01:54:56;;;;;;;;;6.75;5.50;;;;;20.15;98.36;100640.91;4977768;28;45443;-74
2021/06/20 01:57:26;;;;;;;;;10.25;9.00;;;;;20.15;98.30;100642.72;4973423;28;45392;-73
2021/06/20 01:59:52;;;;;;;;;8.00;6.75;;;;;20.13;97.88;100639.34;4965417;28;45662;-74
2021/06/20 02:02:18;;;;;;;;;7.00;7.00;;;;;20.10;98.03;100637.78;4973035;28;45650;-74
2021/06/20 02:04:44;;;;;;;;;10.00;6.00;;;;;20.08;97.63;100642.38;4973929;28;45479;-73
2021/06/20 02:07:10;;;;;;;;;9.00;7.75;;;;;20.07;96.57;100646.03;4973395;28;45401;-74
2021/06/20 02:09:37;;;;;;;;;7.00;7.00;;;;;20.05;95.86;100640.00;4974016;28;45386;-73
2021/06/20 02:12:07;;;;;;;;;7.50;7.50;;;;;19.98;95.22;100633.47;4974137;28;46488;-72
2021/06/20 02:14:33;;;;;;;;;8.50;7.25;;;;;20.02;95.20;100641.09;4973878;28;45455;-73
2021/06/20 02:16:58;;;;;;;;;10.50;7.25;;;;;20.00;95.49;100645.72;4974165;28;45394;-73
2021/06/20 02:19:24;;;;;;;;;9.00;6.50;;;;;20.00;95.32;100650.22;4972549;28;45498;-74
2021/06/20 02:21:49;;;;;;;;;7.00;7.00;;;;;19.99;95.83;100652.03;4973496;28;46978;-72
2021/06/20 02:24:15;;;;;;;;;10.25;7.75;;;;;19.94;95.43;100653.34;4973307;28;45617;-74
2021/06/20 02:26:41;;;;;;;;;9.25;7.50;;;;;19.90;95.33;100650.13;4974098;28;45498;-74
2021/06/20 02:29:06;;;;;;;;;11.50;7.00;;;;;19.96;94.87;100665.59;4975000;28;45506;-74
2021/06/20 02:31:31;;;;;;;;;7.50;6.75;;;;;19.95;95.16;100663.94;4972875;28;46602;-74
2021/06/20 02:33:57;;;;;;;;;8.00;7.00;;;;;20.01;94.82;100671.41;4974287;28;45572;-74
2021/06/20 02:36:23;;;;;;;;;7.75;7.75;;;;;20.02;95.37;100656.25;4973006;28;45573;-74
2021/06/20 02:38:48;;;;;;;;;6.25;6.00;;;;;20.01;94.72;100658.06;4973604;28;45895;-74
2021/06/20 02:41:13;;;;;;;;;6.75;6.75;;;;;19.99;94.39;100662.69;4975360;28;46589;-74
2021/06/20 02:43:39;;;;;;;;;9.50;7.25;;;;;19.95;94.62;100666.59;4972049;28;45586;-74
2021/06/20 02:46:04;;;;;;;;;6.25;6.25;;;;;19.93;94.66;100675.69;4973522;28;45514;-74
2021/06/20 02:48:29;;;;;;;;;10.75;8.25;;;;;19.92;93.99;100664.16;4972254;28;45933;-74
2021/06/20 02:50:55;;;;;;;;;7.25;7.25;;;;;19.90;94.88;100663.47;4987107;28;47256;-74
2021/06/20 02:53:20;;;;;;;;;6.25;6.00;;;;;19.95;94.40;100671.09;4974624;28;45380;-77
2021/06/20 02:55:45;;;;;;;;;10.25;6.75;;;;;19.96;94.64;100672.78;4972603;28;45450;-77
2021/06/20 02:58:11;;;;;;;;;10.00;7.75;;;;;20.00;94.23;100669.72;4972009;28;45448;-76
2021/06/20 03:00:37;;;;;;;;;8.75;6.25;;;;;20.01;94.01;100671.41;4970411;28;45518;-77
2021/06/20 03:03:03;;;;;;;;;11.75;10.00;;;;;20.00;93.30;100674.22;4972432;28;45867;-74
2021/06/20 03:05:28;;;;;;;;;8.50;7.50;;;;;19.95;94.24;100669.25;4974768;28;45420;-74
2021/06/20 03:07:54;;;;;;;;;6.25;5.75;;;;;19.95;94.19;100663.09;4973769;28;45427;-74
2021/06/20 03:10:19;;;;;;;;;12.50;9.25;;;;;19.92;93.92;100656.16;4975364;28;45300;-73
2021/06/20 03:12:45;;;;;;;;;10.00;8.50;;;;;19.90;93.88;100662.63;4974566;28;46804;-73
2021/06/20 03:15:11;;;;;;;;;9.25;8.50;;;;;19.89;93.87;100660.91;4976188;28;45483;-73
2021/06/20 03:17:36;;;;;;;;;9.50;7.25;;;;;19.87;93.81;100657.53;4976916;28;45414;-74
2021/06/20 03:20:03;;;;;;;;;8.50;7.25;;;;;19.85;93.63;100663.00;4976315;28;46805;-73
2021/06/20 03:22:29;;;;;;;;;7.75;7.00;;;;;19.83;93.81;100664.06;4976217;28;45777;-74
2021/06/20 03:24:54;;;;;;;;;9.25;8.50;;;;;19.81;93.20;100666.88;4975582;28;45243;-74
2021/06/20 03:27:20;;;;;;;;;10.75;8.00;;;;;19.77;93.01;100663.63;4976523;28;45445;-74
2021/06/20 03:29:46;;;;;;;;;6.25;6.00;;;;;19.71;93.24;100666.78;4976237;28;45995;-75
2021/06/20 03:32:13;;;;;;;;;5.50;5.25;;;;;19.66;92.78;100657.47;4977082;28;45407;-72
2021/06/20 03:34:39;;;;;;;;;6.75;5.00;;;;;19.63;92.73;100666.59;4975458;28;45781;-74
2021/06/20 03:37:05;;;;;;;;;6.50;4.00;;;;;19.60;92.69;100677.50;4976039;28;45968;-74
2021/06/20 03:39:31;;;;;;;;;4.00;3.75;;;;;19.56;92.29;100673.34;4975613;28;45766;-74
2021/06/20 03:41:56;;;;;;;;;4.00;4.00;;;;;19.50;91.67;100669.38;4974927;28;45641;-74
2021/06/20 03:44:22;;;;;;;;;4.50;2.50;;;;;19.45;92.07;100655.56;4977410;28;45537;-73
2021/06/20 03:46:47;;;;;;;;;4.25;4.00;;;;;19.41;91.78;100655.94;4977236;28;45389;-74
2021/06/20 03:49:12;;;;;;;;;4.50;3.00;;;;;19.37;92.02;100657.16;4974520;28;47985;-74
2021/06/20 03:51:38;;;;;;;;;4.50;4.00;;;;;19.30;91.68;100657.66;4976187;28;45565;-74
2021/06/20 03:54:03;;;;;;;;;5.75;4.00;;;;;19.29;91.42;100663.09;4975577;28;45604;-73
2021/06/20 03:56:29;;;;;;;;;5.00;3.25;;;;;19.26;91.27;100668.66;4977110;28;45525;-73
2021/06/20 03:58:55;;;;;;;;;5.50;2.75;;;;;19.24;91.29;100670.63;4990435;28;47105;-74
2021/06/20 04:01:20;;;;;;;;;4.25;2.75;;;;;19.22;91.67;100668.09;4975199;28;45563;-74
2021/06/20 04:03:45;;;;;;;;;4.25;4.25;;;;;19.19;90.99;100678.97;4974889;28;45444;-74
2021/06/20 04:06:11;;;;;;;;;2.25;2.00;;;;;19.19;91.26;100683.47;4975002;28;45410;-72
2021/06/20 04:08:36;;;;;;;;;3.00;3.00;;;;;19.18;91.03;100673.78;4975585;28;45501;-73
2021/06/20 04:11:02;;;;;;;;;5.25;2.50;;;;;19.18;90.72;100692.44;4990077;28;45445;-74
2021/06/20 04:13:27;;;;;;;;;3.25;2.00;;;;;19.16;90.67;100681.91;4976051;28;45410;-74
2021/06/20 04:15:52;;;;;;;;;2.00;2.00;;;;;19.13;90.26;100686.63;4975234;28;45344;-73
2021/06/20 04:18:18;;;;;;;;;2.50;2.00;;;;;19.12;90.57;100685.78;4975572;28;46878;-75
2021/06/20 04:20:43;;;;;;;;;2.25;2.25;;;;;19.11;89.91;100701.91;4974680;28;45388;-74
2021/06/20 04:23:09;;;;;;;;;2.00;2.00;;;;;19.09;89.47;100698.47;4977473;28;45696;-75
2021/06/20 04:25:35;;;;;;;;;4.00;2.75;;;;;19.09;90.08;100698.47;4974536;28;45440;-74
2021/06/20 04:28:00;;;;;;;;;2.75;2.75;;;;;19.05;89.59;100700.53;4975364;28;46444;-74
2021/06/20 04:30:27;;;;;;;;;3.00;3.00;;;;;19.06;89.29;100698.75;4974128;28;45412;-73
2021/06/20 04:32:53;;;;;;;;;4.00;2.00;;;;;19.06;90.19;100696.94;4975475;28;45481;-74
2021/06/20 04:35:19;;;;;;;;;4.00;4.00;;;;;19.09;90.13;100701.16;4975336;28;45263;-72
2021/06/20 04:37:46;;;;;;;;;2.50;2.00;;;;;19.10;89.84;100692.19;4973664;28;45480;-73
2021/06/20 04:40:22;;;;;;;;;5.25;3.00;;;;;19.09;90.22;100698.47;4974372;28;45585;-74
2021/06/20 04:43:04;;;;;;;;;3.00;3.00;;;;;19.11;89.23;100704.56;4975733;28;45510;-75
2021/06/20 04:45:30;;;;;;;;;5.50;3.50;;;;;19.14;89.22;100694.47;4974674;28;45517;-74
2021/06/20 04:47:55;;;;;;;;;5.00;4.00;;;;;19.18;89.82;100703.09;4975355;28;46507;-74
2021/06/20 04:50:21;;;;;;;;;4.00;4.00;;;;;19.20;89.52;100701.97;4977326;28;45366;-75
2021/06/20 04:52:46;;;;;;;;;5.25;4.75;;;;;19.23;88.92;100690.25;4975161;28;45332;-74
2021/06/20 04:55:12;;;;;;;;;3.00;3.00;;;;;19.27;89.06;100699.69;4975042;28;45559;-74
2021/06/20 04:57:38;;;;;;;;;3.00;3.00;;;;;19.30;89.00;100713.59;4975397;28;46620;-74
2021/06/20 05:00:05;;;;;;;;;3.00;3.00;;;;;19.33;88.80;100704.53;4975084;28;45363;-74
2021/06/20 05:02:31;;;;;;;;;2.00;2.00;;;;;19.33;88.69;100709.03;4976573;28;45467;-74
2021/06/20 05:04:57;;;;;;;;;3.00;3.00;;;;;19.33;88.07;100695.69;4975075;28;45540;-74
2021/06/20 05:07:22;;;;;;;;;2.75;2.25;;;;;19.34;88.40;100692.06;4974290;28;46546;-73
2021/06/20 05:09:48;;;;;;;;;3.00;3.00;;;;;19.36;88.65;100704.28;4974927;28;45769;-72
2021/06/20 05:12:14;;;;;;;;;3.50;2.50;;;;;19.44;88.01;100690.34;4974235;28;45277;-74
2021/06/20 05:14:43;;;;;;;;;4.75;3.50;;;;;19.48;88.61;100679.31;4973835;28;46191;-74
2021/06/20 05:17:14;;;;;;;;;4.00;2.75;;;;;19.50;88.39;100682.69;4976033;28;46339;-74
2021/06/20 05:19:40;;;;;;;;;3.00;3.00;;;;;19.53;87.96;100687.78;4973189;28;45535;-74
2021/06/20 05:22:07;;;;;;;;;3.25;3.25;;;;;19.55;88.29;100701.81;4973969;28;45449;-75
2021/06/20 05:24:32;;;;;;;;;3.00;3.00;;;;;19.56;87.99;100694.66;4973718;28;45475;-75
2021/06/20 05:26:58;;;;;;;;;2.25;2.00;;;;;19.59;87.50;100685.59;4974695;28;45734;-74
2021/06/20 05:29:23;;;;;;;;;3.75;3.00;;;;;19.67;88.34;100680.50;4991114;28;45527;-74
2021/06/20 05:31:49;;;;;;;;;2.00;2.00;;;;;19.72;88.15;100678.28;4975126;28;45282;-74
2021/06/20 05:34:14;;;;;;;;;1.75;1.75;;;;;19.85;87.63;100686.16;4974342;28;45459;-74
2021/06/20 05:36:40;;;;;;;;;1.50;1.50;;;;;19.94;88.23;100682.69;4973384;28;46478;-74
2021/06/20 05:39:05;;;;;;;;;3.00;1.75;;;;;20.01;87.48;100678.56;4973941;28;45634;-74
2021/06/20 05:41:31;;;;;;;;;3.75;3.75;;;;;20.13;87.86;100679.34;4974884;28;45432;-73
2021/06/20 05:43:56;;;;;;;;;2.50;2.50;;;;;20.27;87.91;100679.06;4974730;28;45277;-73
2021/06/20 05:46:22;;;;;;;;;1.75;1.75;;;;;20.41;86.97;100673.41;4974288;28;45501;-73
2021/06/20 05:48:48;;;;;;;;;4.00;2.00;;;;;20.71;85.57;100691.28;4974097;28;45474;-74
2021/06/20 05:51:13;;;;;;;;;5.00;3.75;;;;;20.80;85.31;100685.16;4979971;28;45533;-73
2021/06/20 05:53:39;;;;;;;;;3.00;2.00;;;;;20.95;85.45;100679.47;4984818;28;45622;-73
2021/06/20 05:56:04;;;;;;;;;2.75;2.50;;;;;21.18;84.75;100688.97;4974456;28;45594;-72
2021/06/20 05:58:30;;;;;;;;;3.50;2.00;;;;;21.37;84.62;100698.91;4973499;28;45387;-74
2021/06/20 06:00:55;;;;;;;;;3.00;1.75;;;;;21.49;84.02;100708.50;4974094;28;45376;-72
2021/06/20 06:03:20;;;;;;;;;5.00;3.75;;;;;21.67;83.57;100702.53;4975093;28;45345;-72
2021/06/20 06:05:46;;;;;;;;;3.00;3.00;;;;;21.82;84.05;100701.97;4972995;28;45778;-73
2021/06/20 06:08:11;;;;;;;;;5.25;3.25;;;;;21.90;83.50;100690.56;4975148;28;45412;-72
2021/06/20 06:10:37;;;;;;;;;5.75;4.00;;;;;21.95;83.17;100688.31;4975046;28;45450;-72
2021/06/20 06:13:03;;;;;;;;;4.50;3.25;;;;;22.10;83.29;100703.00;4973208;28;45634;-72
2021/06/20 06:15:30;;;;;;;;;4.25;3.25;;;;;22.24;82.87;100706.22;4973766;28;46358;-72
2021/06/20 06:17:55;;;;;;;;;4.75;3.50;;;;;22.22;81.20;100702.84;4973941;28;45674;-73
2021/06/20 06:20:21;;;;;;;;;3.50;2.75;;;;;22.17;80.58;100707.78;4974792;28;45558;-72
2021/06/20 06:22:47;;;;;;;;;2.00;2.00;;;;;22.16;81.06;100700.75;4972308;28;45451;-72
2021/06/20 06:25:12;;;;;;;;;5.25;4.00;;;;;22.27;80.44;100685.38;4972610;28;45404;-73
2021/06/20 06:27:39;;;;;;;;;2.00;2.00;;;;;22.52;79.62;100693.81;4972387;28;45567;-73
2021/06/20 06:30:05;;;;;;;;;5.75;3.00;;;;;22.65;78.50;100705.88;4972397;28;45576;-73
2021/06/20 06:32:31;;;;;;;;;2.00;2.00;;;;;22.70;78.82;100708.13;4973330;28;45335;-73
2021/06/20 06:34:57;;;;;;;;;4.75;2.50;;;;;22.67;77.66;100687.84;4974166;28;46511;-73
2021/06/20 06:37:23;;;;;;;;;1.00;1.00;;;;;22.71;77.71;100708.97;4969526;28;45934;-73
2021/06/20 06:39:48;;;;;;;;;2.75;2.75;;;;;22.75;78.81;100699.66;4969828;28;45812;-73
2021/06/20 06:42:14;;;;;;;;;2.00;2.00;;;;;22.78;78.24;100685.97;4967897;28;45602;-75
2021/06/20 06:44:39;;;;;;;;;3.25;2.00;;;;;22.69;77.95;100687.69;4972855;28;45372;-75
2021/06/20 06:47:05;;;;;;;;;3.00;3.00;;;;;22.54;78.02;100689.97;4985356;28;45483;-75
2021/06/20 06:49:31;;;;;;;;;3.00;2.00;;;;;22.40;77.98;100685.09;4970675;28;45450;-76
2021/06/20 06:51:56;;;;;;;;;4.50;3.75;;;;;22.34;78.10;100683.84;4973783;28;45530;-75
2021/06/20 06:54:21;;;;;;;;;2.50;2.00;;;;;22.30;77.82;100687.78;4973630;28;46647;-75
2021/06/20 06:56:47;;;;;;;;;3.75;2.75;;;;;22.30;78.42;100694.97;4962757;28;45546;-75
2021/06/20 06:59:12;;;;;;;;;4.25;3.75;;;;;22.37;77.76;100701.44;4963947;28;45517;-75
2021/06/20 07:01:39;;;;;;;;;2.75;2.00;;;;;22.43;77.83;100706.22;4963325;28;45506;-74
2021/06/20 07:04:04;;;;;;;;;3.25;2.00;;;;;22.56;77.92;100709.44;4965755;28;46476;-75
2021/06/20 07:06:30;;;;;;;;;6.75;4.00;;;;;22.62;76.83;100708.84;4967959;28;45979;-74
2021/06/20 07:08:55;;;;;;;;;4.25;4.25;;;;;22.64;76.81;100711.38;4969067;28;45625;-74
2021/06/20 07:11:21;;;;;;;;;16.75;15.50;;;;;22.74;77.03;100711.38;4971817;28;45468;-74
2021/06/20 07:13:46;;;;;;;;;4.00;3.00;;;;;22.81;77.24;100709.78;4968716;28;46513;-74
2021/06/20 07:16:12;;;;;;;;;2.75;2.00;;;;;23.08;76.42;100714.41;4971015;28;46019;-73
2021/06/20 07:18:37;;;;;;;;;4.50;4.50;;;;;23.35;76.61;100705.53;4969804;28;45448;-72
2021/06/20 07:21:03;;;;;;;;;4.75;3.00;;;;;23.46;75.51;100710.69;4961300;28;45447;-74
2021/06/20 07:23:28;;;;;;;;;2.00;2.00;;;;;23.50;74.52;100703.19;4970349;28;46889;-73
2021/06/20 07:25:54;;;;;;;;;2.25;2.25;;;;;23.63;74.25;100709.91;4971210;28;45467;-74
2021/06/20 07:28:20;;;;;;;;;5.25;3.00;;;;;23.98;74.41;100704.72;4971315;28;45776;-74
2021/06/20 07:30:49;;;;;;;;;3.00;2.50;;;;;24.29;74.12;100705.16;4970901;28;45348;-74
2021/06/20 07:33:23;;;;;;;;;5.00;3.50;;;;;25.48;73.79;100708.94;4970687;28;46760;-74
2021/06/20 07:35:51;;;;;;;;;4.25;4.00;;;;;26.05;71.50;100706.41;4970845;28;45721;-73
2021/06/20 07:38:17;;;;;;;;;3.25;2.25;;;;;26.37;70.12;100710.09;4971368;28;45633;-74
2021/06/20 07:40:43;;;;;;;;;3.75;3.00;;;;;26.29;69.60;100701.00;4972200;28;45596;-73
2021/06/20 07:43:08;;;;;;;;;4.50;4.00;;;;;26.72;70.43;100709.75;4968399;28;46285;-76
2021/06/20 07:45:34;;;;;;;;;2.00;2.00;;;;;27.05;69.26;100715.06;4972871;28;45823;-75
2021/06/20 07:47:59;;;;;;;;;15.00;13.00;;;;;26.98;66.93;100711.38;4972040;28;45721;-74
2021/06/20 07:50:25;;;;;;;;;7.50;6.25;;;;;26.71;67.35;100705.38;4972916;28;45644;-74
2021/06/20 07:52:51;;;;;;;;;5.00;4.00;;;;;26.70;67.31;100701.00;4974047;28;45465;-73
2021/06/20 07:55:17;;;;;;;;;2.75;2.75;;;;;27.30;67.58;100700.50;4975332;28;45574;-74
2021/06/20 07:57:42;;;;;;;;;3.00;3.00;;;;;28.34;66.68;100693.75;4977646;28;45917;-74
2021/06/20 08:00:09;;;;;;;;;4.00;3.25;;;;;30.15;64.75;100696.81;4978929;28;45360;-73
2021/06/20 08:02:35;;;;;;;;;3.00;2.00;;;;;30.87;62.84;100694.88;4976330;28;45468;-77
2021/06/20 08:05:01;;;;;;;;;6.75;3.75;;;;;32.64;60.93;100694.75;4992935;28;46111;-74
2021/06/20 08:07:26;;;;;;;;;4.25;3.50;;;;;34.85;58.38;100697.72;4977586;28;45545;-74
2021/06/20 08:09:51;;;;;;;;;1.50;1.50;;;;;36.90;54.87;100704.03;4978055;28;45407;-75
2021/06/20 08:12:17;;;;;;;;;2.00;1.50;;;;;38.21;51.13;100693.16;4977561;28;47634;-75
2021/06/20 08:14:42;;;;;;;;;2.00;2.00;;;;;39.86;49.86;100698.69;4976010;28;45513;-76
2021/06/20 08:17:09;;;;;;;;;2.50;2.50;;;;;40.73;46.80;100696.66;4975645;28;45485;-74
2021/06/20 08:19:35;;;;;;;;;2.00;2.00;;;;;40.74;44.58;100690.84;4973405;28;45386;-73
2021/06/20 08:22:00;;;;;;;;;2.50;2.50;;;;;41.23;44.57;100701.56;4976372;28;46171;-73
2021/06/20 08:24:26;;;;;;;;;2.00;1.75;;;;;41.25;43.57;100709.59;4976800;28;45765;-74
2021/06/20 08:26:51;;;;;;;;;2.00;2.00;;;;;41.07;41.88;100706.19;4984858;28;45320;-74
2021/06/20 08:29:16;;;;;;;;;3.00;2.00;;;;;40.61;41.04;100696.84;4976518;28;45553;-74
2021/06/20 08:31:42;;;;;;;;;3.00;2.00;;;;;39.85;41.51;100714.38;4975274;28;45510;-75
2021/06/20 08:34:08;;;;;;;;;1.25;1.25;;;;;40.46;41.54;100718.72;4975065;28;45664;-75
2021/06/20 08:36:35;;;;;;;;;3.75;2.00;;;;;42.44;41.30;100711.16;4975873;28;45446;-75
2021/06/20 08:39:03;;;;;;;;;1.25;1.25;;;;;44.62;38.85;100707.50;4974277;28;45505;-75
2021/06/20 08:41:31;;;;;;;;;1.50;1.25;;;;;46.30;36.32;100710.69;4976884;28;46536;-75
2021/06/20 08:43:57;;;;;;;;;1.00;1.00;;;;;47.31;31.96;100711.81;4976102;28;45599;-74
2021/06/20 08:46:24;;;;;;;;;1.00;1.00;;;;;47.20;29.53;100718.72;4974061;28;45723;-75
2021/06/20 08:48:49;;;;;;;;;1.00;1.00;;;;;46.64;29.78;100720.66;4975207;28;45560;-75
2021/06/20 08:51:15;;;;;;;;;2.75;2.75;;;;;47.06;28.45;100713.16;4973782;28;46223;-75
2021/06/20 08:53:40;;;;;;;;;1.75;1.00;;;;;48.19;26.62;100717.81;4974382;28;45405;-75
2021/06/20 08:56:05;;;;;;;;;2.00;2.00;;;;;49.19;26.14;100710.88;4974588;28;45553;-75
2021/06/20 08:58:34;;;;;;;;;3.00;2.00;;;;;50.47;25.17;100713.06;4973926;28;45562;-75
2021/06/20 09:01:01;;;;;;;;;2.25;2.00;;;;;51.60;23.30;100705.69;4977290;28;46557;-75
2021/06/20 09:03:40;;;;;;;;;1.00;1.00;;;;;52.22;21.99;100703.16;4973952;28;45454;-75
2021/06/20 09:06:19;;;;;;;;;2.50;1.00;;;;;52.44;21.46;100702.69;4983862;28;45390;-75
2021/06/20 09:08:49;;;;;;;;;2.00;2.00;;;;;52.67;21.14;100681.44;4980997;28;45411;-75
2021/06/20 09:11:29;;;;;;;;;2.00;1.25;;;;;53.63;20.15;100669.56;4975454;28;46293;-75
2021/06/20 09:14:03;;;;;;;;;0.50;0.50;;;;;55.01;19.72;100665.03;4976118;28;45533;-75
2021/06/20 09:16:29;;;;;;;;;1.50;1.50;;;;;55.47;18.84;100662.44;4976192;28;45496;-74
2021/06/20 09:18:55;;;;;;;;;2.00;1.00;;;;;55.43;17.84;100655.91;4981292;28;45618;-75
2021/06/20 09:21:25;;;;;;;;;2.50;1.00;;;;;55.32;17.69;100657.66;4974722;28;46433;-75
2021/06/20 09:23:56;;;;;;;;;1.00;1.00;;;;;55.03;17.89;100659.88;4983691;28;46006;-76
2021/06/20 09:26:39;;;;;;;;;1.75;1.75;;;;;54.62;17.45;100642.44;4973793;28;45512;-75
2021/06/20 09:29:06;;;;;;;;;2.00;0.75;;;;;53.89;18.21;100643.78;4973755;28;45367;-77
2021/06/20 09:31:51;;;;;;;;;0.50;0.50;;;;;53.19;18.76;100630.16;4993282;28;47746;-76
2021/06/20 09:34:17;;;;;;;;;2.75;1.00;;;;;52.66;19.04;100639.69;4970477;28;45498;-77
2021/06/20 09:36:45;;;;;;;;;3.00;2.00;;;;;52.12;19.29;100635.09;4974486;28;45611;-77
2021/06/20 09:39:24;;;;;;;;;0.75;0.50;;;;;51.42;19.13;100626.56;4974738;28;45730;-75
2021/06/20 09:42:01;;;;;;;;;1.25;1.25;;;;;50.52;19.23;100631.81;4976111;28;46517;-76
2021/06/20 09:44:49;;;;;;;;;1.75;1.50;;;;;49.65;19.93;100634.81;4970019;28;46402;-76
2021/06/20 09:47:20;;;;;;;;;0.50;0.50;;;;;49.20;20.06;100629.59;4975000;28;45329;-76
2021/06/20 09:49:47;;;;;;;;;1.00;1.00;;;;;48.52;20.02;100645.00;4975410;28;45397;-74
2021/06/20 09:52:15;;;;;;;;;2.75;1.00;;;;;47.75;20.17;100644.22;4975715;28;45576;-74
2021/06/20 09:54:55;;;;;;;;;1.00;1.00;;;;;47.75;21.15;100649.78;4975059;28;45668;-74
2021/06/20 09:57:21;;;;;;;;;3.25;0.25;;;;;47.87;21.09;100635.28;4989508;28;45369;-74
2021/06/20 09:59:58;;;;;;;;;4.00;3.00;;;;;47.89;20.73;100624.66;4975119;28;45780;-74
2021/06/20 10:02:29;;;;;;;;;2.25;1.25;;;;;47.71;20.39;100632.06;4974686;28;45384;-74
2021/06/20 10:04:55;;;;;;;;;1.25;0.50;;;;;47.17;20.97;100627.50;4975310;28;45502;-73
2021/06/20 10:07:25;;;;;;;;;2.00;2.00;;;;;46.41;20.42;100627.94;4973011;28;46269;-74
2021/06/20 10:09:51;;;;;;;;;0.50;0.50;;;;;45.39;21.43;100634.44;4972751;28;45505;-74
2021/06/20 10:12:16;;;;;;;;;0.75;0.75;;;;;44.63;22.31;100641.78;4972931;28;46262;-74
2021/06/20 10:14:43;;;;;;;;;47.50;39.25;;;;;43.76;22.09;100637.06;4974096;28;45507;-74
2021/06/20 10:17:12;;;;;;;;;1.50;0.75;;;;;43.17;23.36;100621.38;4974463;28;45376;-75
2021/06/20 10:19:41;;;;;;;;;0.75;0.75;;;;;42.54;24.16;100608.06;4973650;28;45471;-74
2021/06/20 10:22:12;;;;;;;;;1.50;1.50;;;;;42.04;24.29;100618.13;4975148;28;47294;-74
2021/06/20 10:24:46;;;;;;;;;2.00;2.00;;;;;41.48;24.85;100620.03;4972982;28;45877;-75
2021/06/20 10:27:26;;;;;;;;;1.75;1.75;;;;;41.15;24.92;100609.19;4971097;28;45368;-75
2021/06/20 10:29:54;;;;;;;;;1.25;0.50;;;;;40.57;25.01;100611.16;4971828;28;45490;-73
2021/06/20 10:32:21;;;;;;;;;0.00;0.00;;;;;40.06;25.52;100596.19;4972415;28;46549;-75
2021/06/20 10:34:51;;;;;;;;;5.00;5.00;;;;;39.71;25.60;100602.25;4973648;28;45388;-75
2021/06/20 10:37:19;;;;;;;;;1.00;1.00;;;;;39.31;26.11;100596.09;4971348;28;45510;-76
2021/06/20 10:39:48;;;;;;;;;4.00;4.00;;;;;39.06;26.98;100588.38;4972461;28;45464;-75
2021/06/20 10:42:14;;;;;;;;;6.00;5.00;;;;;38.91;26.89;100579.97;4973046;28;46354;-76
2021/06/20 10:44:51;;;;;;;;;1.00;1.00;;;;;38.79;26.48;100560.88;4972705;28;46769;-74
2021/06/20 10:47:38;;;;;;;;;2.00;1.00;;;;;38.44;26.65;100549.41;4972976;28;45440;-74
2021/06/20 10:50:04;;;;;;;;;2.25;1.50;;;;;38.23;26.66;100537.28;4974267;28;45403;-75
2021/06/20 10:52:29;;;;;;;;;3.00;3.00;;;;;37.88;26.52;100526.63;4973034;28;45676;-75
2021/06/20 10:55:10;;;;;;;;;1.75;1.75;;;;;37.69;27.14;100520.53;4972431;28;45519;-75
2021/06/20 10:57:47;;;;;;;;;2.00;1.00;;;;;37.30;27.91;100515.78;4972183;28;46906;-75
2021/06/20 11:00:31;;;;;;;;;3.00;3.00;;;;;36.99;27.37;100519.88;4968244;28;45812;-74
2021/06/20 11:03:10;;;;;;;;;3.75;3.25;;;;;36.57;27.98;100522.03;4972778;28;46565;-74
2021/06/20 11:05:48;;;;;;;;;4.25;4.00;;;;;36.08;28.76;100524.25;4978847;28;45566;-75
2021/06/20 11:08:32;;;;;;;;;3.50;1.00;;;;;35.58;28.61;100534.75;4974153;28;45537;-68
2021/06/20 11:11:13;;;;;;;;;1.00;1.00;;;;;35.34;28.60;100521.00;4972265;28;45496;-69
2021/06/20 11:13:40;;;;;;;;;2.00;2.00;;;;;35.01;28.78;100492.31;4971109;28;45509;-70
2021/06/20 11:16:13;;;;;;;;;11.75;9.75;;;;;34.74;30.36;100477.34;4970356;28;45501;-69
2021/06/20 11:18:40;;;;;;;;;6.75;5.00;;;;;34.66;30.08;100467.56;4973207;28;49809;-69
2021/06/20 11:21:06;;;;;;;;;11.00;7.75;;;;;34.66;31.38;100472.19;4972767;28;45745;-68
2021/06/20 11:23:32;;;;;;;;;35.00;29.75;;;;;34.72;30.30;100452.19;4974635;28;46217;-68